sensor_id;sensor_type;location;lat;lon;timestamp;temperature;humidity
62583;DHT22;48641;51.676;5.808;2023-07-08T00:00:22;24.90;51.90
62583;DHT22;48641;51.676;5.808;2023-07-08T00:02:49;24.90;51.90
62583;DHT22;48641;51.676;5.808;2023-07-08T00:05:17;24.90;52.00
62583;DHT22;48641;51.676;5.808;2023-07-08T00:07:43;24.90;51.90
62583;DHT22;48641;51.676;5.808;2023-07-08T00:10:28;24.80;51.90
62583;DHT22;48641;51.676;5.808;2023-07-08T00:12:55;24.90;51.90
62583;DHT22;48641;51.676;5.808;2023-07-08T00:15:28;24.90;51.90
62583;DHT22;48641;51.676;5.808;2023-07-08T00:17:54;24.90;51.90
62583;DHT22;48641;51.676;5.808;2023-07-08T00:23:05;24.90;51.70
62583;DHT22;48641;51.676;5.808;2023-07-08T00:25:31;24.90;51.80
62583;DHT22;48641;51.676;5.808;2023-07-08T00:27:58;24.90;51.90
62583;DHT22;48641;51.676;5.808;2023-07-08T00:30:28;24.90;51.80
62583;DHT22;48641;51.676;5.808;2023-07-08T00:32:55;24.90;51.80
62583;DHT22;48641;51.676;5.808;2023-07-08T00:35:38;24.80;51.80
62583;DHT22;48641;51.676;5.808;2023-07-08T00:38:24;24.80;51.80
62583;DHT22;48641;51.676;5.808;2023-07-08T00:43:51;24.80;51.80
62583;DHT22;48641;51.676;5.808;2023-07-08T00:51:38;24.80;51.80
62583;DHT22;48641;51.676;5.808;2023-07-08T00:54:05;24.80;51.90
62583;DHT22;48641;51.676;5.808;2023-07-08T00:56:38;24.80;51.90
62583;DHT22;48641;51.676;5.808;2023-07-08T00:59:35;24.80;51.80
62583;DHT22;48641;51.676;5.808;2023-07-08T01:02:04;24.90;51.70
62583;DHT22;48641;51.676;5.808;2023-07-08T01:07:09;24.80;51.80
62583;DHT22;48641;51.676;5.808;2023-07-08T01:09:37;24.80;51.80
62583;DHT22;48641;51.676;5.808;2023-07-08T01:12:08;24.80;51.80
62583;DHT22;48641;51.676;5.808;2023-07-08T01:14:35;24.80;51.80
62583;DHT22;48641;51.676;5.808;2023-07-08T01:17:02;24.80;51.80
62583;DHT22;48641;51.676;5.808;2023-07-08T01:19:28;24.80;51.80
62583;DHT22;48641;51.676;5.808;2023-07-08T01:21:58;24.80;51.90
62583;DHT22;48641;51.676;5.808;2023-07-08T01:24:27;24.80;51.80
62583;DHT22;48641;51.676;5.808;2023-07-08T01:26:55;24.80;51.80
62583;DHT22;48641;51.676;5.808;2023-07-08T01:29:22;24.80;51.80
62583;DHT22;48641;51.676;5.808;2023-07-08T01:31:48;24.80;51.80
62583;DHT22;48641;51.676;5.808;2023-07-08T01:34:17;24.80;52.80
62583;DHT22;48641;51.676;5.808;2023-07-08T01:36:52;24.80;51.70
62583;DHT22;48641;51.676;5.808;2023-07-08T01:39:20;24.80;51.60
62583;DHT22;48641;51.676;5.808;2023-07-08T01:41:47;24.80;51.80
62583;DHT22;48641;51.676;5.808;2023-07-08T01:46:55;24.80;51.60
62583;DHT22;48641;51.676;5.808;2023-07-08T01:49:22;24.80;51.70
62583;DHT22;48641;51.676;5.808;2023-07-08T01:51:48;24.70;51.70
62583;DHT22;48641;51.676;5.808;2023-07-08T01:54:14;24.70;51.70
62583;DHT22;48641;51.676;5.808;2023-07-08T01:56:40;24.70;51.70
62583;DHT22;48641;51.676;5.808;2023-07-08T01:59:06;24.70;51.70
62583;DHT22;48641;51.676;5.808;2023-07-08T02:01:31;24.70;51.70
62583;DHT22;48641;51.676;5.808;2023-07-08T02:03:57;24.70;51.70
62583;DHT22;48641;51.676;5.808;2023-07-08T02:06:22;24.70;51.70
62583;DHT22;48641;51.676;5.808;2023-07-08T02:08:48;24.80;51.70
62583;DHT22;48641;51.676;5.808;2023-07-08T02:11:15;24.80;51.70
62583;DHT22;48641;51.676;5.808;2023-07-08T02:13:41;24.70;51.70
62583;DHT22;48641;51.676;5.808;2023-07-08T02:16:07;24.70;51.60
62583;DHT22;48641;51.676;5.808;2023-07-08T02:18:32;24.80;51.70
62583;DHT22;48641;51.676;5.808;2023-07-08T02:20:58;24.80;51.60
62583;DHT22;48641;51.676;5.808;2023-07-08T02:23:25;24.70;51.60
62583;DHT22;48641;51.676;5.808;2023-07-08T02:25:52;24.70;51.50
62583;DHT22;48641;51.676;5.808;2023-07-08T02:28:18;24.70;51.60
62583;DHT22;48641;51.676;5.808;2023-07-08T02:30:44;24.70;51.60
62583;DHT22;48641;51.676;5.808;2023-07-08T02:33:12;24.70;51.60
62583;DHT22;48641;51.676;5.808;2023-07-08T02:35:37;24.70;51.60
62583;DHT22;48641;51.676;5.808;2023-07-08T02:38:03;24.70;51.60
62583;DHT22;48641;51.676;5.808;2023-07-08T02:40:28;24.70;51.50
62583;DHT22;48641;51.676;5.808;2023-07-08T02:42:54;24.70;51.50
62583;DHT22;48641;51.676;5.808;2023-07-08T02:45:21;24.70;51.60
62583;DHT22;48641;51.676;5.808;2023-07-08T02:47:46;24.70;51.60
62583;DHT22;48641;51.676;5.808;2023-07-08T02:50:12;24.70;51.60
62583;DHT22;48641;51.676;5.808;2023-07-08T02:52:38;24.70;51.60
62583;DHT22;48641;51.676;5.808;2023-07-08T02:55:04;24.70;51.60
62583;DHT22;48641;51.676;5.808;2023-07-08T02:57:30;24.70;51.50
62583;DHT22;48641;51.676;5.808;2023-07-08T02:59:56;24.70;51.50
62583;DHT22;48641;51.676;5.808;2023-07-08T03:02:22;24.70;51.50
62583;DHT22;48641;51.676;5.808;2023-07-08T03:04:48;24.70;51.60
62583;DHT22;48641;51.676;5.808;2023-07-08T03:07:16;24.70;51.50
62583;DHT22;48641;51.676;5.808;2023-07-08T03:09:42;24.70;51.50
62583;DHT22;48641;51.676;5.808;2023-07-08T03:12:09;24.70;51.50
62583;DHT22;48641;51.676;5.808;2023-07-08T03:14:35;24.70;51.50
62583;DHT22;48641;51.676;5.808;2023-07-08T03:17:02;24.70;51.50
62583;DHT22;48641;51.676;5.808;2023-07-08T03:19:27;24.70;51.50
62583;DHT22;48641;51.676;5.808;2023-07-08T03:21:53;24.70;51.50
62583;DHT22;48641;51.676;5.808;2023-07-08T03:24:19;24.70;51.50
62583;DHT22;48641;51.676;5.808;2023-07-08T03:26:46;24.60;51.50
62583;DHT22;48641;51.676;5.808;2023-07-08T03:29:17;24.70;51.50
62583;DHT22;48641;51.676;5.808;2023-07-08T03:31:43;24.70;51.50
62583;DHT22;48641;51.676;5.808;2023-07-08T03:34:13;24.70;51.50
62583;DHT22;48641;51.676;5.808;2023-07-08T03:36:50;24.70;51.50
62583;DHT22;48641;51.676;5.808;2023-07-08T03:39:24;24.70;51.50
62583;DHT22;48641;51.676;5.808;2023-07-08T03:41:51;24.70;51.50
62583;DHT22;48641;51.676;5.808;2023-07-08T03:44:17;24.60;51.50
62583;DHT22;48641;51.676;5.808;2023-07-08T03:46:47;24.60;51.50
62583;DHT22;48641;51.676;5.808;2023-07-08T03:49:19;24.60;51.50
62583;DHT22;48641;51.676;5.808;2023-07-08T03:51:48;24.60;51.50
62583;DHT22;48641;51.676;5.808;2023-07-08T03:54:14;24.60;51.50
62583;DHT22;48641;51.676;5.808;2023-07-08T03:56:40;24.60;51.50
62583;DHT22;48641;51.676;5.808;2023-07-08T03:59:07;24.60;52.40
62583;DHT22;48641;51.676;5.808;2023-07-08T04:01:32;24.60;51.50
62583;DHT22;48641;51.676;5.808;2023-07-08T04:03:59;24.60;51.50
62583;DHT22;48641;51.676;5.808;2023-07-08T04:06:25;24.60;51.50
62583;DHT22;48641;51.676;5.808;2023-07-08T04:08:51;24.60;51.50
62583;DHT22;48641;51.676;5.808;2023-07-08T04:11:19;24.60;51.50
62583;DHT22;48641;51.676;5.808;2023-07-08T04:13:46;24.60;51.50
62583;DHT22;48641;51.676;5.808;2023-07-08T04:18:43;24.60;51.50
62583;DHT22;48641;51.676;5.808;2023-07-08T04:21:08;24.60;51.50
62583;DHT22;48641;51.676;5.808;2023-07-08T04:23:34;24.60;51.50
62583;DHT22;48641;51.676;5.808;2023-07-08T04:26:00;24.60;51.50
62583;DHT22;48641;51.676;5.808;2023-07-08T04:28:26;24.60;51.50
62583;DHT22;48641;51.676;5.808;2023-07-08T04:30:51;24.60;51.50
62583;DHT22;48641;51.676;5.808;2023-07-08T04:33:17;24.60;51.50
62583;DHT22;48641;51.676;5.808;2023-07-08T04:35:44;24.50;51.30
62583;DHT22;48641;51.676;5.808;2023-07-08T04:38:19;24.50;51.30
62583;DHT22;48641;51.676;5.808;2023-07-08T04:40:47;24.50;51.30
62583;DHT22;48641;51.676;5.808;2023-07-08T04:43:13;24.50;51.40
62583;DHT22;48641;51.676;5.808;2023-07-08T04:45:41;24.50;51.50
62583;DHT22;48641;51.676;5.808;2023-07-08T04:48:12;24.50;51.50
62583;DHT22;48641;51.676;5.808;2023-07-08T04:50:42;24.50;51.40
62583;DHT22;48641;51.676;5.808;2023-07-08T04:53:09;24.50;51.40
62583;DHT22;48641;51.676;5.808;2023-07-08T04:55:41;24.50;51.40
62583;DHT22;48641;51.676;5.808;2023-07-08T04:58:08;24.50;51.40
62583;DHT22;48641;51.676;5.808;2023-07-08T05:00:34;24.50;51.40
62583;DHT22;48641;51.676;5.808;2023-07-08T05:03:00;24.50;51.50
62583;DHT22;48641;51.676;5.808;2023-07-08T05:05:25;24.50;51.40
62583;DHT22;48641;51.676;5.808;2023-07-08T05:07:51;24.50;51.40
62583;DHT22;48641;51.676;5.808;2023-07-08T05:10:18;24.50;51.30
62583;DHT22;48641;51.676;5.808;2023-07-08T05:12:44;24.50;51.40
62583;DHT22;48641;51.676;5.808;2023-07-08T05:15:10;24.50;51.40
62583;DHT22;48641;51.676;5.808;2023-07-08T05:17:38;24.50;51.50
62583;DHT22;48641;51.676;5.808;2023-07-08T05:20:05;24.50;51.40
62583;DHT22;48641;51.676;5.808;2023-07-08T05:22:31;24.50;51.50
62583;DHT22;48641;51.676;5.808;2023-07-08T05:24:57;24.50;51.50
62583;DHT22;48641;51.676;5.808;2023-07-08T05:27:23;24.50;51.50
62583;DHT22;48641;51.676;5.808;2023-07-08T05:29:49;24.50;51.50
62583;DHT22;48641;51.676;5.808;2023-07-08T05:32:15;24.50;51.50
62583;DHT22;48641;51.676;5.808;2023-07-08T05:34:42;24.50;51.50
62583;DHT22;48641;51.676;5.808;2023-07-08T05:37:07;24.50;51.50
62583;DHT22;48641;51.676;5.808;2023-07-08T05:39:33;24.50;51.40
62583;DHT22;48641;51.676;5.808;2023-07-08T05:41:59;24.50;51.30
62583;DHT22;48641;51.676;5.808;2023-07-08T05:44:25;24.50;51.40
62583;DHT22;48641;51.676;5.808;2023-07-08T05:46:51;24.40;51.30
62583;DHT22;48641;51.676;5.808;2023-07-08T05:49:16;24.40;51.30
62583;DHT22;48641;51.676;5.808;2023-07-08T05:51:45;24.40;51.30
62583;DHT22;48641;51.676;5.808;2023-07-08T05:54:11;24.40;51.30
62583;DHT22;48641;51.676;5.808;2023-07-08T05:56:37;24.40;51.30
62583;DHT22;48641;51.676;5.808;2023-07-08T05:59:03;24.40;51.30
62583;DHT22;48641;51.676;5.808;2023-07-08T06:01:30;24.40;51.30
62583;DHT22;48641;51.676;5.808;2023-07-08T06:03:56;24.40;51.30
62583;DHT22;48641;51.676;5.808;2023-07-08T06:06:25;24.40;51.40
62583;DHT22;48641;51.676;5.808;2023-07-08T06:08:51;24.40;51.40
62583;DHT22;48641;51.676;5.808;2023-07-08T06:11:17;24.40;51.50
62583;DHT22;48641;51.676;5.808;2023-07-08T06:13:42;24.40;51.40
62583;DHT22;48641;51.676;5.808;2023-07-08T06:16:08;24.40;51.40
62583;DHT22;48641;51.676;5.808;2023-07-08T06:18:34;24.40;51.40
62583;DHT22;48641;51.676;5.808;2023-07-08T06:21:00;24.40;51.40
62583;DHT22;48641;51.676;5.808;2023-07-08T06:23:27;24.40;51.30
62583;DHT22;48641;51.676;5.808;2023-07-08T06:25:53;24.50;51.40
62583;DHT22;48641;51.676;5.808;2023-07-08T06:28:19;24.40;51.40
62583;DHT22;48641;51.676;5.808;2023-07-08T06:30:45;24.40;51.40
62583;DHT22;48641;51.676;5.808;2023-07-08T06:33:11;24.40;51.40
62583;DHT22;48641;51.676;5.808;2023-07-08T06:35:38;24.40;51.50
62583;DHT22;48641;51.676;5.808;2023-07-08T06:38:04;24.40;51.50
62583;DHT22;48641;51.676;5.808;2023-07-08T06:40:31;24.40;51.50
62583;DHT22;48641;51.676;5.808;2023-07-08T06:42:57;24.40;51.50
62583;DHT22;48641;51.676;5.808;2023-07-08T06:45:22;24.40;51.50
62583;DHT22;48641;51.676;5.808;2023-07-08T06:47:48;24.40;51.50
62583;DHT22;48641;51.676;5.808;2023-07-08T06:50:14;24.40;51.50
62583;DHT22;48641;51.676;5.808;2023-07-08T06:52:39;24.40;51.50
62583;DHT22;48641;51.676;5.808;2023-07-08T06:55:07;24.40;51.50
62583;DHT22;48641;51.676;5.808;2023-07-08T06:57:34;24.40;51.50
62583;DHT22;48641;51.676;5.808;2023-07-08T07:00:00;24.40;51.50
62583;DHT22;48641;51.676;5.808;2023-07-08T07:02:26;24.40;51.50
62583;DHT22;48641;51.676;5.808;2023-07-08T07:04:52;24.40;51.50
62583;DHT22;48641;51.676;5.808;2023-07-08T07:07:18;24.40;51.50
62583;DHT22;48641;51.676;5.808;2023-07-08T07:09:44;24.40;51.50
62583;DHT22;48641;51.676;5.808;2023-07-08T07:12:09;24.40;51.50
62583;DHT22;48641;51.676;5.808;2023-07-08T07:14:35;24.40;51.50
62583;DHT22;48641;51.676;5.808;2023-07-08T07:17:01;24.40;51.50
62583;DHT22;48641;51.676;5.808;2023-07-08T07:19:27;24.30;51.60
62583;DHT22;48641;51.676;5.808;2023-07-08T07:21:53;24.30;51.50
62583;DHT22;48641;51.676;5.808;2023-07-08T07:24:19;24.40;51.50
62583;DHT22;48641;51.676;5.808;2023-07-08T07:26:46;24.30;51.50
62583;DHT22;48641;51.676;5.808;2023-07-08T07:29:16;24.40;51.50
62583;DHT22;48641;51.676;5.808;2023-07-08T07:31:41;24.40;51.50
62583;DHT22;48641;51.676;5.808;2023-07-08T07:34:07;24.40;51.50
62583;DHT22;48641;51.676;5.808;2023-07-08T07:36:34;24.40;51.50
62583;DHT22;48641;51.676;5.808;2023-07-08T07:38:59;24.40;52.50
62583;DHT22;48641;51.676;5.808;2023-07-08T07:41:25;24.40;51.50
62583;DHT22;48641;51.676;5.808;2023-07-08T07:43:51;24.40;51.50
62583;DHT22;48641;51.676;5.808;2023-07-08T07:46:16;24.40;51.50
62583;DHT22;48641;51.676;5.808;2023-07-08T07:48:42;24.40;51.50
62583;DHT22;48641;51.676;5.808;2023-07-08T07:51:08;24.40;51.50
62583;DHT22;48641;51.676;5.808;2023-07-08T07:53:36;24.40;51.50
62583;DHT22;48641;51.676;5.808;2023-07-08T07:56:03;24.30;51.50
62583;DHT22;48641;51.676;5.808;2023-07-08T07:58:30;24.40;51.60
62583;DHT22;48641;51.676;5.808;2023-07-08T08:00:57;24.40;51.70
62583;DHT22;48641;51.676;5.808;2023-07-08T08:03:22;24.40;51.60
62583;DHT22;48641;51.676;5.808;2023-07-08T08:05:49;24.40;51.60
62583;DHT22;48641;51.676;5.808;2023-07-08T08:08:15;24.40;51.60
62583;DHT22;48641;51.676;5.808;2023-07-08T08:10:42;24.40;51.60
62583;DHT22;48641;51.676;5.808;2023-07-08T08:13:08;24.40;51.50
62583;DHT22;48641;51.676;5.808;2023-07-08T08:15:34;24.40;51.50
62583;DHT22;48641;51.676;5.808;2023-07-08T08:18:00;24.40;51.50
62583;DHT22;48641;51.676;5.808;2023-07-08T08:20:26;24.40;51.50
62583;DHT22;48641;51.676;5.808;2023-07-08T08:22:52;24.40;51.50
62583;DHT22;48641;51.676;5.808;2023-07-08T08:25:19;24.40;51.50
62583;DHT22;48641;51.676;5.808;2023-07-08T08:27:45;24.40;51.50
62583;DHT22;48641;51.676;5.808;2023-07-08T08:30:12;24.40;51.60
62583;DHT22;48641;51.676;5.808;2023-07-08T08:32:37;24.40;51.60
62583;DHT22;48641;51.676;5.808;2023-07-08T08:35:04;24.40;51.60
62583;DHT22;48641;51.676;5.808;2023-07-08T08:37:29;24.40;51.60
62583;DHT22;48641;51.676;5.808;2023-07-08T08:39:55;24.40;51.60
62583;DHT22;48641;51.676;5.808;2023-07-08T08:42:34;24.40;51.70
62583;DHT22;48641;51.676;5.808;2023-07-08T08:45:02;24.40;51.60
62583;DHT22;48641;51.676;5.808;2023-07-08T08:52:34;24.40;51.60
62583;DHT22;48641;51.676;5.808;2023-07-08T08:55:00;24.40;51.60
62583;DHT22;48641;51.676;5.808;2023-07-08T08:59:57;24.40;51.60
62583;DHT22;48641;51.676;5.808;2023-07-08T09:05:13;24.40;51.70
62583;DHT22;48641;51.676;5.808;2023-07-08T09:13:00;24.40;51.80
62583;DHT22;48641;51.676;5.808;2023-07-08T09:15:28;24.40;51.80
62583;DHT22;48641;51.676;5.808;2023-07-08T09:17:57;24.40;51.80
62583;DHT22;48641;51.676;5.808;2023-07-08T09:20:27;24.40;51.90
62583;DHT22;48641;51.676;5.808;2023-07-08T09:23:03;24.40;51.90
62583;DHT22;48641;51.676;5.808;2023-07-08T09:25:43;24.40;51.90
62583;DHT22;48641;51.676;5.808;2023-07-08T09:28:13;24.40;51.90
62583;DHT22;48641;51.676;5.808;2023-07-08T09:30:39;24.40;52.20
62583;DHT22;48641;51.676;5.808;2023-07-08T09:33:08;24.40;52.10
62583;DHT22;48641;51.676;5.808;2023-07-08T09:35:43;24.40;52.10
62583;DHT22;48641;51.676;5.808;2023-07-08T09:38:13;24.40;52.00
62583;DHT22;48641;51.676;5.808;2023-07-08T09:40:46;24.40;52.10
62583;DHT22;48641;51.676;5.808;2023-07-08T09:43:33;24.50;52.00
62583;DHT22;48641;51.676;5.808;2023-07-08T09:46:01;24.40;52.00
62583;DHT22;48641;51.676;5.808;2023-07-08T09:48:35;24.40;52.10
62583;DHT22;48641;51.676;5.808;2023-07-08T09:51:01;24.40;52.00
62583;DHT22;48641;51.676;5.808;2023-07-08T09:53:28;24.40;52.00
62583;DHT22;48641;51.676;5.808;2023-07-08T09:55:57;24.50;52.10
62583;DHT22;48641;51.676;5.808;2023-07-08T09:58:27;24.50;52.10
62583;DHT22;48641;51.676;5.808;2023-07-08T10:00:59;24.50;52.10
62583;DHT22;48641;51.676;5.808;2023-07-08T10:03:28;24.50;52.10
62583;DHT22;48641;51.676;5.808;2023-07-08T10:05:58;24.50;52.10
62583;DHT22;48641;51.676;5.808;2023-07-08T10:08:35;24.50;52.10
62583;DHT22;48641;51.676;5.808;2023-07-08T10:12:22;24.50;52.00
62583;DHT22;48641;51.676;5.808;2023-07-08T10:14:34;24.50;51.90
62583;DHT22;48641;51.676;5.808;2023-07-08T10:17:01;24.50;52.00
62583;DHT22;48641;51.676;5.808;2023-07-08T10:19:27;24.50;52.10
62583;DHT22;48641;51.676;5.808;2023-07-08T10:31:04;24.50;52.10
62583;DHT22;48641;51.676;5.808;2023-07-08T10:41:42;24.50;52.40
62583;DHT22;48641;51.676;5.808;2023-07-08T10:44:23;24.60;52.50
62583;DHT22;48641;51.676;5.808;2023-07-08T10:47:27;24.60;52.50
62583;DHT22;48641;51.676;5.808;2023-07-08T10:55:43;24.70;52.50
62583;DHT22;48641;51.676;5.808;2023-07-08T11:06:22;24.70;52.50
62583;DHT22;48641;51.676;5.808;2023-07-08T11:08:56;24.80;52.60
62583;DHT22;48641;51.676;5.808;2023-07-08T11:11:39;24.80;52.60
62583;DHT22;48641;51.676;5.808;2023-07-08T11:14:42;24.80;52.60
62583;DHT22;48641;51.676;5.808;2023-07-08T11:22:46;24.90;52.70
62583;DHT22;48641;51.676;5.808;2023-07-08T11:25:18;24.90;52.70
62583;DHT22;48641;51.676;5.808;2023-07-08T11:27:46;25.00;52.70
62583;DHT22;48641;51.676;5.808;2023-07-08T11:30:17;25.00;52.70
62583;DHT22;48641;51.676;5.808;2023-07-08T11:32:43;25.00;52.50
62583;DHT22;48641;51.676;5.808;2023-07-08T11:35:37;25.00;52.30
62583;DHT22;48641;51.676;5.808;2023-07-08T11:38:05;25.00;52.50
62583;DHT22;48641;51.676;5.808;2023-07-08T11:40:32;25.10;52.70
62583;DHT22;48641;51.676;5.808;2023-07-08T11:43:04;25.10;52.60
62583;DHT22;48641;51.676;5.808;2023-07-08T11:45:37;25.10;52.50
62583;DHT22;48641;51.676;5.808;2023-07-08T11:48:29;25.10;52.40
62583;DHT22;48641;51.676;5.808;2023-07-08T11:50:56;25.20;52.20
62583;DHT22;48641;51.676;5.808;2023-07-08T11:56:00;25.20;52.30
62583;DHT22;48641;51.676;5.808;2023-07-08T11:58:31;25.20;52.30
62583;DHT22;48641;51.676;5.808;2023-07-08T12:08:53;25.40;52.20
62583;DHT22;48641;51.676;5.808;2023-07-08T12:11:19;25.30;52.30
62583;DHT22;48641;51.676;5.808;2023-07-08T12:13:50;25.40;52.20
62583;DHT22;48641;51.676;5.808;2023-07-08T12:16:15;25.40;52.20
62583;DHT22;48641;51.676;5.808;2023-07-08T12:18:43;25.40;52.10
62583;DHT22;48641;51.676;5.808;2023-07-08T12:21:12;25.40;52.10
62583;DHT22;48641;51.676;5.808;2023-07-08T12:23:44;25.50;52.10
62583;DHT22;48641;51.676;5.808;2023-07-08T12:26:11;25.50;52.10
62583;DHT22;48641;51.676;5.808;2023-07-08T12:28:38;25.50;52.20
62583;DHT22;48641;51.676;5.808;2023-07-08T12:31:15;25.50;52.20
62583;DHT22;48641;51.676;5.808;2023-07-08T12:33:40;25.50;52.10
62583;DHT22;48641;51.676;5.808;2023-07-08T12:36:10;25.60;52.20
62583;DHT22;48641;51.676;5.808;2023-07-08T12:38:41;25.60;52.10
62583;DHT22;48641;51.676;5.808;2023-07-08T12:41:29;25.70;52.20
62583;DHT22;48641;51.676;5.808;2023-07-08T12:43:56;25.70;52.00
62583;DHT22;48641;51.676;5.808;2023-07-08T12:46:23;25.60;52.10
62583;DHT22;48641;51.676;5.808;2023-07-08T12:48:49;25.70;52.20
62583;DHT22;48641;51.676;5.808;2023-07-08T12:51:17;25.70;52.10
62583;DHT22;48641;51.676;5.808;2023-07-08T12:53:43;25.70;52.10
62583;DHT22;48641;51.676;5.808;2023-07-08T12:56:09;25.70;52.10
62583;DHT22;48641;51.676;5.808;2023-07-08T12:58:44;25.70;52.10
62583;DHT22;48641;51.676;5.808;2023-07-08T13:01:25;25.70;52.00
62583;DHT22;48641;51.676;5.808;2023-07-08T13:04:04;25.80;52.20
62583;DHT22;48641;51.676;5.808;2023-07-08T13:06:32;25.80;52.20
62583;DHT22;48641;51.676;5.808;2023-07-08T13:09:15;25.80;52.20
62583;DHT22;48641;51.676;5.808;2023-07-08T13:11:47;25.80;52.10
62583;DHT22;48641;51.676;5.808;2023-07-08T13:14:14;25.80;52.10
62583;DHT22;48641;51.676;5.808;2023-07-08T13:16:40;25.80;52.20
62583;DHT22;48641;51.676;5.808;2023-07-08T13:19:09;25.80;52.10
62583;DHT22;48641;51.676;5.808;2023-07-08T13:21:36;25.80;52.10
62583;DHT22;48641;51.676;5.808;2023-07-08T13:24:06;25.80;52.10
62583;DHT22;48641;51.676;5.808;2023-07-08T13:26:32;25.90;52.20
62583;DHT22;48641;51.676;5.808;2023-07-08T13:29:05;25.90;52.20
62583;DHT22;48641;51.676;5.808;2023-07-08T13:31:34;25.90;52.10
62583;DHT22;48641;51.676;5.808;2023-07-08T13:34:07;25.90;52.20
62583;DHT22;48641;51.676;5.808;2023-07-08T13:36:36;25.90;52.10
62583;DHT22;48641;51.676;5.808;2023-07-08T13:39:02;26.00;52.20
62583;DHT22;48641;51.676;5.808;2023-07-08T13:41:30;26.00;52.20
62583;DHT22;48641;51.676;5.808;2023-07-08T13:43:56;25.90;52.40
62583;DHT22;48641;51.676;5.808;2023-07-08T13:54:42;26.00;52.30
62583;DHT22;48641;51.676;5.808;2023-07-08T13:57:12;26.00;52.40
62583;DHT22;48641;51.676;5.808;2023-07-08T13:59:38;26.00;52.30
62583;DHT22;48641;51.676;5.808;2023-07-08T14:02:18;26.00;52.30
62583;DHT22;48641;51.676;5.808;2023-07-08T14:04:45;26.10;52.40
62583;DHT22;48641;51.676;5.808;2023-07-08T14:07:20;26.00;52.30
62583;DHT22;48641;51.676;5.808;2023-07-08T14:09:46;26.10;52.30
62583;DHT22;48641;51.676;5.808;2023-07-08T14:12:12;26.10;52.40
62583;DHT22;48641;51.676;5.808;2023-07-08T14:14:38;26.10;52.30
62583;DHT22;48641;51.676;5.808;2023-07-08T14:17:04;26.10;52.30
62583;DHT22;48641;51.676;5.808;2023-07-08T14:19:32;26.10;52.30
62583;DHT22;48641;51.676;5.808;2023-07-08T14:22:07;26.20;52.30
62583;DHT22;48641;51.676;5.808;2023-07-08T14:24:41;26.10;52.30
62583;DHT22;48641;51.676;5.808;2023-07-08T14:27:08;26.20;52.30
62583;DHT22;48641;51.676;5.808;2023-07-08T14:29:39;26.20;52.30
62583;DHT22;48641;51.676;5.808;2023-07-08T14:34:53;26.20;52.30
62583;DHT22;48641;51.676;5.808;2023-07-08T14:37:20;26.20;52.30
62583;DHT22;48641;51.676;5.808;2023-07-08T14:39:46;26.20;52.40
62583;DHT22;48641;51.676;5.808;2023-07-08T14:42:14;26.20;52.30
62583;DHT22;48641;51.676;5.808;2023-07-08T14:44:43;26.30;52.30
62583;DHT22;48641;51.676;5.808;2023-07-08T14:47:11;26.30;52.30
62583;DHT22;48641;51.676;5.808;2023-07-08T14:49:37;26.30;52.20
62583;DHT22;48641;51.676;5.808;2023-07-08T14:52:03;26.30;52.30
62583;DHT22;48641;51.676;5.808;2023-07-08T14:54:29;26.30;52.30
62583;DHT22;48641;51.676;5.808;2023-07-08T14:56:56;26.30;52.30
62583;DHT22;48641;51.676;5.808;2023-07-08T14:59:24;26.30;52.30
62583;DHT22;48641;51.676;5.808;2023-07-08T15:01:52;26.30;52.30
62583;DHT22;48641;51.676;5.808;2023-07-08T15:04:19;26.30;53.30
62583;DHT22;48641;51.676;5.808;2023-07-08T15:06:45;26.30;52.30
62583;DHT22;48641;51.676;5.808;2023-07-08T15:09:12;26.30;52.30
62583;DHT22;48641;51.676;5.808;2023-07-08T15:11:40;26.30;52.30
62583;DHT22;48641;51.676;5.808;2023-07-08T15:14:13;26.40;52.30
62583;DHT22;48641;51.676;5.808;2023-07-08T15:16:42;26.40;52.30
62583;DHT22;48641;51.676;5.808;2023-07-08T15:19:11;26.40;52.30
62583;DHT22;48641;51.676;5.808;2023-07-08T15:21:37;26.40;52.20
62583;DHT22;48641;51.676;5.808;2023-07-08T15:24:06;26.40;52.20
62583;DHT22;48641;51.676;5.808;2023-07-08T15:26:32;26.40;52.20
62583;DHT22;48641;51.676;5.808;2023-07-08T15:28:57;26.40;52.30
62583;DHT22;48641;51.676;5.808;2023-07-08T15:31:25;26.40;52.20
62583;DHT22;48641;51.676;5.808;2023-07-08T15:33:54;26.50;52.30
62583;DHT22;48641;51.676;5.808;2023-07-08T15:36:19;26.40;52.20
62583;DHT22;48641;51.676;5.808;2023-07-08T15:38:45;26.40;52.30
62583;DHT22;48641;51.676;5.808;2023-07-08T15:41:31;26.40;52.20
62583;DHT22;48641;51.676;5.808;2023-07-08T15:43:58;26.50;52.30
62583;DHT22;48641;51.676;5.808;2023-07-08T15:46:50;26.50;52.40
62583;DHT22;48641;51.676;5.808;2023-07-08T15:49:19;26.50;52.30
62583;DHT22;48641;51.676;5.808;2023-07-08T15:51:45;26.50;52.40
62583;DHT22;48641;51.676;5.808;2023-07-08T15:54:11;26.50;52.40
62583;DHT22;48641;51.676;5.808;2023-07-08T15:56:38;26.50;52.30
62583;DHT22;48641;51.676;5.808;2023-07-08T15:59:04;26.50;52.30
62583;DHT22;48641;51.676;5.808;2023-07-08T16:01:30;26.50;52.30
62583;DHT22;48641;51.676;5.808;2023-07-08T16:03:56;26.50;52.30
62583;DHT22;48641;51.676;5.808;2023-07-08T16:06:25;26.50;52.20
62583;DHT22;48641;51.676;5.808;2023-07-08T16:08:50;26.50;52.30
62583;DHT22;48641;51.676;5.808;2023-07-08T16:11:21;26.50;52.20
62583;DHT22;48641;51.676;5.808;2023-07-08T16:13:48;26.50;52.30
62583;DHT22;48641;51.676;5.808;2023-07-08T16:16:14;26.50;52.30
62583;DHT22;48641;51.676;5.808;2023-07-08T16:18:40;26.50;52.30
62583;DHT22;48641;51.676;5.808;2023-07-08T16:21:06;26.50;52.30
62583;DHT22;48641;51.676;5.808;2023-07-08T16:23:32;26.50;52.30
62583;DHT22;48641;51.676;5.808;2023-07-08T16:25:59;26.50;52.30
62583;DHT22;48641;51.676;5.808;2023-07-08T16:28:33;26.60;52.40
62583;DHT22;48641;51.676;5.808;2023-07-08T16:30:59;26.60;52.40
62583;DHT22;48641;51.676;5.808;2023-07-08T16:33:25;26.60;52.40
62583;DHT22;48641;51.676;5.808;2023-07-08T16:35:51;26.60;52.40
62583;DHT22;48641;51.676;5.808;2023-07-08T16:38:17;26.60;52.40
62583;DHT22;48641;51.676;5.808;2023-07-08T16:40:43;26.60;52.30
62583;DHT22;48641;51.676;5.808;2023-07-08T16:43:30;26.60;52.30
62583;DHT22;48641;51.676;5.808;2023-07-08T16:46:00;26.60;52.20
62583;DHT22;48641;51.676;5.808;2023-07-08T16:48:25;26.60;53.40
62583;DHT22;48641;51.676;5.808;2023-07-08T16:50:51;26.60;52.40
62583;DHT22;48641;51.676;5.808;2023-07-08T16:53:17;26.60;52.50
62583;DHT22;48641;51.676;5.808;2023-07-08T16:55:42;26.60;52.50
62583;DHT22;48641;51.676;5.808;2023-07-08T16:58:10;26.60;52.50
62583;DHT22;48641;51.676;5.808;2023-07-08T17:00:37;26.60;52.50
62583;DHT22;48641;51.676;5.808;2023-07-08T17:03:03;26.60;52.50
62583;DHT22;48641;51.676;5.808;2023-07-08T17:05:32;26.70;52.60
62583;DHT22;48641;51.676;5.808;2023-07-08T17:07:58;26.70;52.70
62583;DHT22;48641;51.676;5.808;2023-07-08T17:10:24;26.70;52.70